International TAF

Brunei, China, Hong Kong, Malaysia, Philippines, Taiwan

The availability of aerodrome forecasts from overseas locations is dependent on the regular international exchange of data. Some locations may at times be absent. If this problem persists, please advise webav@bom.gov.au

 back to top

ZSPD 25/09/2017 UTC

TAF ZSPD 251523Z 2518/2618 18004MPS 6000 BKN005 OVC040 TX28/2606Z
TN21/2521Z BECMG 2600/2602 28004MPS BKN013 OVC040 TEMPO 2518/2524
SHRA
BKN004 FEW030CB OVC033

WIDD 25/09/2017 UTC

TAF WIDD 251700Z 2518/2618 13003KT 9000 FEW015
BECMG 2600/2602 16008KT SCT014

WAMM 25/09/2017 UTC

TAF WAMM 251700Z 2518/2624 07002KT 9999 SCT022
PROB40 TEMPO 2518/2522 7000 -RA SCT018
BECMG 2523/2601 29006KT
PROB40 TEMPO 2605/2609 5000 -RA FEW017CB SCT018
BECMG 2609/2611 09002KT FEW022

WBSB 25/09/2017 UTC

TAF WBSB 251700Z 2518/2700 26001KT 9999 FEW014
BKN140 BECMG 2603/2605 04008KT FEW016 FEW017CB

WBKK 25/09/2017 UTC

TAF WBKK 251700Z 2518/2618 11005KT 9999 FEW014

WBGG 25/09/2017 UTC

TAF AMD WBGG 251910Z 2519/2618 22005KT 9999 SCT020 BKN150
TEMPO 2519/2523 3000 TSRA FEW015CB
TEMPO 2606/2610 4000 TSRA FEW015CB

VHHH 25/09/2017 UTC

TAF VHHH 251700Z 2518/2624 12010KT 9999 FEW015 TX34/2606Z
TN28/2522Z TN28/2622Z TEMPO 2518/2602 VRB05KT TEMPO 2602/2609
27010KT BECMG 2612/2614 VRB05KT

VMMC 25/09/2017 UTC

TAF VMMC 251700Z 2518/2624 14008KT 9999 FEW015 SCT025

ZGSZ 25/09/2017 UTC

TAF ZGSZ 251506Z 2518/2618 16004MPS 6000 FEW030 TX32/2606Z
TN27/2522Z

RCTP 25/09/2017 UTC

TAF RCTP 251700Z 2518/2624 23008KT 9999 FEW025
TEMPO 2518/2522 18005KT
TEMPO 2521/2524 FEW010 BKN024
BECMG 2601/2603 27011KT
BECMG 2610/2612 21005KT

RCKH 25/09/2017 UTC

TAF RCKH 251700Z 2518/2624 04005KT 9999 FEW012 SCT060
TEMPO 2520/2601 5000 BR
BECMG 2600/2602 30005KT
TEMPO 2603/2609 28010KT
BECMG 2612/2614 05005KT
TEMPO 2616/2621 17005KT

ZGGG 25/09/2017 UTC

TAF ZGGG 251502Z 2518/2618 16003MPS 8000 SCT040 TX35/2607Z
TN27/2522Z

ZBAA 25/09/2017 UTC

TAF ZBAA 251520Z 2518/2618 15004MPS 3500 BR NSC TX26/2607Z
TN20/2521Z
TEMPO 2518/2524 2700 -SHRA FEW040CB BKN040 TEMPO 2603/2608 2700
-SHRA
FEW040CB BKN040

ZSSS 25/09/2017 UTC

TAF ZSSS 251524Z 2518/2618 16004MPS 6000 -SHRA BKN005 OVC040
TX25/2606Z TN22/2521Z BECMG 2603/2605 BKN015

ZBTJ 25/09/2017 UTC

TAF ZBTJ 251507Z 2518/2618 18003MPS 5000 HZ NSC TX26/2604Z
TN16/2617Z
BECMG 2604/2605 06006MPS 3000 -SHRA BR BKN040

ZBYN 25/09/2017 UTC

TAF ZBYN 251521Z 2518/2618 09004MPS 3000 HZ NSC TX22/2607Z
TN13/2521Z
TEMPO 2521/2601 2000 -SHRA BR

ZSHC 25/09/2017 UTC

TAF ZSHC 251503Z 2518/2618 09003MPS 1500 BR NSC TX31/2606Z
TN24/2521Z
TEMPO 2518/2524 0700 FG BECMG 2603/2604 3000 BR

ZSOF 25/09/2017 UTC

TAF ZSOF 251509Z 251818 30003MPS 3000 BR NSC TX27/07Z TN21/21Z

ZWWW 25/09/2017 UTC

TAF ZWWW 251509Z 2518/2618 18004MPS CAVOK TX14/2608Z TN04/2523Z
BECMG 2602/2603 36004MPS BECMG 2613/2614 18004MPS

ZYTL 25/09/2017 UTC

TAF ZYTL 251504Z 2518/2618 13004G10MPS 8000 SCT026 TX26/2606Z
TN20/2521Z BECMG 2606/2607 03004G10MPS

RPLL 25/09/2017 UTC

TAF RPLL 251700Z 2518/2624 04007KT 9999 FEW025 BKN300 TX31/2606Z
TN26/2522Z TEMPO 2518/2524 07005KT 9000 -SHRA FEW022CB SCT023
OVC090 TEMPO 2600/2606 12011KT FEW022CB SCT025 BKN100 TEMPO
2606/2612 21010KT SCT023 SCT100

RPVM 25/09/2017 UTC

TAF RPVM 251700Z 2518/2624 21006KT 9999 FEW020 SCT100 TEMPO 2518/
2524 20005KT 8000 -SHRA FEW018CB SCT020 BKN100 TEMPO 2606/2612
22008KT FEW018CB FEW020 SCT090 BKN250

RPMZ 25/09/2017 UTC

TAF RPMZ 251700Z 2518/2618 20004KT 9999 FEW018 BKN300
TEMPO 2518/2524 18002KT -SHRA FEW017CB SCT018 BKN100

Australian International

The availability of aerodrome forecasts from overseas locations is dependent on the regular international exchange of data. Some locations may at times be absent. If this problem persists, please advise webav@bom.gov.au

 back to top

YMML 25/09/2017 UTC

TAF AMD YMML 251714Z 2518/2624
30005KT 9999 FEW035
FM260000 VRB05KT 9999 FEW045
FM260600 17007KT CAVOK
FM261400 02012KT CAVOK
BECMG 2620/2622 01020G35KT 9999 -RA BKN090
RMK FM261500 MOD TURB BLW 5000FT TILL261900
FM261900 MOD/SEV TURB BLW 5000FT
T 05 06 12 15 Q 1016 1017 1018 1017

YSSY 25/09/2017 UTC

TAF YSSY 251703Z 2518/2624
24010KT CAVOK
FM260000 16010KT 9999 FEW030
FM260300 13015KT 9999 SCT030
FM260800 11008KT 9999 SCT030
FM261400 03008KT 9999 SCT030
RMK
T 13 14 19 20 Q 1013 1015 1016 1015

YBBN 25/09/2017 UTC

TAF YBBN 251734Z 2518/2624
VRB05KT CAVOK
FM260000 09008KT CAVOK
FM260300 11014KT CAVOK
FM260800 12012KT CAVOK
FM261200 14008KT 9999 FEW025
FM262300 09010KT 9999 FEW030
RMK
T 20 22 27 27 Q 1011 1012 1014 1013

YSCB 25/09/2017 UTC

TAF AMD YSCB 251801Z 2518/2618
VRB03KT CAVOK
FM260000 30012KT CAVOK
BECMG 2610/2611 09005KT 9999 SCT025
BECMG 2617/2618 15005KT 9999 SCT015 BKN025
RMK
T 07 05 13 17 Q 1013 1016 1017 1015

YBCS 25/09/2017 UTC

TAF YBCS 251714Z 2518/2618
16005KT 9999 FEW025
FM260100 05012KT 9999 FEW035
FM260800 16005KT 9999 FEW025
RMK
T 20 21 27 29 Q 1013 1015 1016 1014

YBAS 25/09/2017 UTC

TAF YBAS 251708Z 2518/2618
31006KT CAVOK
FM260000 30012KT CAVOK
FM260300 31015G25KT 8000 BLDU NSC
FM260800 32007KT 9999 NSW NSC
RMK
T 18 16 31 36 Q 1011 1012 1014 1012

YBMA 25/09/2017 UTC

TAF YBMA 251629Z 2518/2606
35006KT CAVOK
RMK
T 20 20 33 38 Q 1012 1013 1014 1012

YPAD 25/09/2017 UTC

TAF YPAD 251703Z 2518/2624
08008KT CAVOK
FM260000 05016KT CAVOK
FM260900 06012KT CAVOK
FM261100 VRB05KT CAVOK
RMK
T 10 10 16 20 Q 1014 1014 1013 1011

YPDN 25/09/2017 UTC

TAF YPDN 251710Z 2518/2624
36005KT 9999 FEW020
FM260200 31011KT 9999 FEW040
FM260900 30006KT CAVOK
FM261400 36005KT 9999 FEW020
RMK
T 26 25 30 31 Q 1010 1011 1013 1012

YPTN 25/09/2017 UTC

TAF YPTN 251709Z 2518/2618
34008KT CAVOK
FM260400 09007KT CAVOK
RMK
T 27 23 31 36 Q 1011 1012 1014 1011

YPPH 25/09/2017 UTC

TAF AMD YPPH 251722Z 2518/2624
20005KT 9999 SCT030
FM260100 19014KT 9999 SCT045
INTER 2604/2609 5000 SHRA BKN020
PROB30 2520/2601 0300 FG
RMK
T 08 08 11 15 Q 1007 1008 1011 1012

YPLM 25/09/2017 UTC

TAF YPLM 251714Z 2518/2618
24007KT 9999 -SHRA SCT040
FM252000 20007KT 9999 -SHRA SCT040
FM260500 24014KT CAVOK
RMK
T 15 14 19 22 Q 1013 1013 1015 1015

YCAR 25/09/2017 UTC

TAF YCAR 252014Z 2522/2611
23010KT 9999 -SHRA BKN040
FM260300 22016KT CAVOK
INTER 2522/2603 5000 SHRA BKN020
RMK
T 15 19 20 20 Q 1013 1015 1015 1014

YPCC 25/09/2017 UTC

TAF YPCC 251659Z 2518/2618
14018KT 9999 -SHRA SCT025
RMK
T 24 24 24 26 Q 1013 1012 1014 1015

YPPD 25/09/2017 UTC

TAF YPPD 251711Z 2518/2618
23010KT CAVOK
FM260300 29020KT CAVOK
FM261000 28012KT CAVOK
RMK
T 20 19 22 26 Q 1012 1012 1014 1014

YBTL 25/09/2017 UTC

TAF AMD YBTL 251728Z 2518/2618
VRB04KT 9999 SCT030
FM252300 04013KT 9999 FEW030
FM260900 04005KT 9999 SCT030
RMK
T 18 19 27 28 Q 1014 1015 1016 1014

YMHB 25/09/2017 UTC

TAF YMHB 251711Z 2518/2618
31005KT 9999 FEW050
FM260100 26008KT 9999 SCT050
FM260400 14006KT 9999 SCT045
FM261000 30008KT 9999 FEW045
RMK FM251800 MOD TURB BLW 5000FT TILL252400
T 05 05 11 13 Q 1011 1012 1014 1013

YPXM 25/09/2017 UTC

TAF YPXM 251709Z 2518/2618
13012KT 9999 -SHRA BKN012
RMK
T 23 23 23 25 Q 1013 1013 1014 1015

New Zealand

The availability of aerodrome forecasts from overseas locations is dependent on the regular international exchange of data. Some locations may at times be absent. If this problem persists, please advise webav@bom.gov.au

 back to top

NZAA 25/09/2017 UTC

TAF NZAA 251626Z 2518/2618 01012KT 9999 -RA FEW020 BKN040
BECMG 2520/2522 36018G28KT
TEMPO 2523/2606 6000 RA FEW030TCU
BECMG 2606/2608 30012KT
TEMPO 2606/2616 6000 RA BKN012 FEW030TCU

NZWN 25/09/2017 UTC

TAF NZWN 251626Z 2518/2618 36030G45KT 9999 -RADZ FEW014 BKN020
TEMPO 2518/2600 6000 RA BKN012
PROB40 TEMPO 2520/2523 4000 +RA FEW020TCU
FM252300 35020G30KT 9999 -SHRA FEW012 SCT025
BECMG 2609/2611 34015KT
BECMG 2616/2618 34005KT

NZCH 25/09/2017 UTC

TAF NZCH 251700Z 2518/2618 07008KT 9999 SCT070
BECMG 2600/2602 32015G25KT
FM261000 24015KT 9999 -SHRA SCT016 BKN025
BECMG 2616/2618 24005KT

YLHI 25/09/2017 UTC

TAF YLHI 251714Z 2518/2618
29010KT 4000 BR BKN008 BKN020
FM260000 20008KT 9999 SCT025
PROB30 INTER 2518/2524 3000 TSRA BKN005 FEW070CB
RMK FM251800 MOD TURB BLW 5000FT TILL252400
T 20 19 20 21 Q 1010 1013 1014 1013

YSNF 25/09/2017 UTC

TAF AMD YSNF 251710Z 2518/2618
36008KT 9999 BKN010
FM252100 33014KT 9999 BKN010 BKN120
FM261200 32013KT 9999 -SHRA SCT005 BKN010 BKN120
PROB30 INTER 2612/2618 4000 TSRA BKN005 FEW110CB
RMK FM260000 MOD TURB BLW 5000FT
T 17 19 20 20 Q 1017 1019 1019 1017

Indonesia, Malaysia, Myanmar, Singapore, Thailand, Vietnam

The availability of aerodrome forecasts from overseas locations is dependent on the regular international exchange of data. Some locations may at times be absent. If this problem persists, please advise webav@bom.gov.au

 back to top

WADA

TAF not available.

WAAA 25/09/2017 UTC

TAF WAAA 251700Z 2518/2700 10004KT 8000 FEW019
SCT120 BECMG 2601/2603 33010KT 9999 TEMPO 2607/2610
5000 -TSRA FEW017CB BECMG 2611/2613 13004KT 8000

WIII 25/09/2017 UTC

TAF WIII 251700Z 2518/2700 VRB03KT 5000 HZ SCT020 TEMPO
2521/2600 3000 BR BECMG 2602/2604 03010KT 9999 NSW

WIHH 25/09/2017 UTC

TAF WIHH 251700Z 2518/2618 22004KT 6000 FEW024
BECMG 2603/2605 06009KT 7000 SCT022 TEMPO
2611/2613 24010KT 5000 -RA FEW018CB SCT017

WIMM 25/09/2017 UTC

TAF WIMM 251700Z 2518/2618 VRB03KT 4000 BR FEW017CB SCT018
BECMG 2604/2606 03010KT 9000 SCT018
BECMG 2610/2612 VRB03KT 5000 HZ FEW017CB SCT018

WIPP 25/09/2017 UTC

TAF WIPP 251700Z 2518/2618 14008KT 9999 SCT012
TEMPO 2521/2601 3000 BR
TEMPO 2608/2612 27010KT 3000 RA BKN012 FEW015CB

WIKD

TAF not available.

WARR 25/09/2017 UTC

TAF WARR 251700Z 2518/2618 26004KT 6000 FEW020
TEMPO 2520/2600 4000 HZ BECMG 2600/2602 08010KT
9999 PROB40 TEMPO 2608/2611 6000 -RA SCT020CB
BECMG 2615/2617 27005KT 6000

WADD 25/09/2017 UTC

TAF WADD 251700Z 2518/2618 10010KT 9999 SCT017
TEMPO 2606/2610 12016KT BKN016

WRRA

TAF not available.

WALL 25/09/2017 UTC

TAF WALL 251700Z 2518/2624 03003KT 9000 FEW020 BECMG 2600/2602 33003KT TEMPO 2602/2605
FEW018CB FEW018

WSSS 25/09/2017 UTC

TAF WSSS 251700Z 2518/2700 17007KT 9999 FEW018CB
SCT020 TEMPO 2605/2609 3000 TSRA FEW012CB BKN015

WSAP 25/09/2017 UTC

TAF WSAP 251700Z 2518/2700 17007KT 9999 FEW018CB
SCT020 TEMPO 2605/2609 3000 TSRA FEW012CB BKN015

WMKK 25/09/2017 UTC

TAF WMKK 251700Z 2518/2700 15005KT 9999 FEW030 SCT140
BKN280 PROB30 TEMPO 2520/2600 4000 TSRA FEW015CB SCT018

WMSA 25/09/2017 UTC

TAF WMSA 251700Z 2518/2618 01005KT 9999 FEW025 SCT140
BKN280 PROB30 TEMPO 2520/2600 4000 TSRA FEW015CB SCT018

WMKP 25/09/2017 UTC

TAF WMKP 251700Z 2518/2618 36005KT 8000 FEW025 SCT140 BKN270

WMKJ 25/09/2017 UTC

TAF WMKJ 251700Z 2518/2618 VRB02KT 9000 FEW022 SCT140
BKN280 TEMPO 2603/2607 4000 TSRA FEW015CB SCT018

WMKD 25/09/2017 UTC

TAF AMD WMKD 251733Z 2518/2618 36005KT 8000 FEW010 SCT160 BKN280
TEMPO 2518/2522 6000 -TSRA FEW017CB

WMKB 25/09/2017 UTC

TAF WMKB 251700Z 2518/2618 VRB02KT 8000 FEW024 SCT140 BKN280
BECMG 2604/2606 28010KT

VTBD 25/09/2017 UTC

TAF VTBD 251700Z 2518/2624 12005KT 9999 FEW025
BECMG 2604/2606 18008KT FEW020 SCT040
TEMPO 2607/2611 6000 -SHRA FEW020CB SCT035 BKN100
BECMG 2614/2616 12005KT FEW020

VTBS 25/09/2017 UTC

TAF VTBS 251700Z 2518/2624 16005KT 9999 FEW020
BECMG 2601/2603 22008KT FEW020 SCT040
TEMPO 2605/2609 6000 -SHRA FEW020CB SCT035 BKN100
BECMG 2615/2617 16005KT FEW020

VTBU 25/09/2017 UTC

TAF VTBU 251700Z 2518/2618 26006KT 9000 FEW020 SCT100
TEMPO 2518/2523 VRB12KT 6000 -RA FEW018CB SCT035 BKN100
BECMG 2523/2601 28004KT 7000

VTCC 25/09/2017 UTC

TAF VTCC 251700Z 2518/2624 24005KT 9999 SCT035
TEMPO 2606/2610 VRB10G25KT 4000 TSRA FEW025CB BKN030

VTSP 25/09/2017 UTC

TAF VTSP 251700Z 2518/2624 VRB02KT 8000 FEW018 BKN100
BECMG 2602/2604 26012KT
TEMPO 2608/2612 26015G30KT 3000 TSRA FEW015CB SCT020 BKN100
BECMG 2614/2616 VRB02KT
TEMPO 2618/2622 26015G30KT 3000 TSRA FEW015CB SCT020 BKN100

VTSS 25/09/2017 UTC

TAF VTSS 251700Z 2518/2618 VRB02KT 9999 FEW020 BKN100
BECMG 2601/2603 24010KT
TEMPO 2606/2612 24010G20KT 6000 -TSRA FEW016CB SCT018 BKN100
BECMG 2613/2615 VRB02KT

VVTS 25/09/2017 UTC

TAF VVTS 251700Z 2518/2624 23005KT 9999 SCT015 SCT040
TEMPO 2606/2612 TS SCT015 FEW017CB

VDPP 25/09/2017 UTC

TAF VDPP 251700Z 2518/2612 21006KT 9999 SCT015 SCT040
TEMPO 2606/2611 5000 SHRA SCT015 FEW017CB SCT040

VVNB 25/09/2017 UTC

TAF VVNB 251700Z 2518/2618 16005KT 9999 SCT015 BKN050
TEMPO 2518/2524 4000 RA BKN010 FEW020TCU
TEMPO 2601/2604 5000 RA SCT010 FEW020TCU

VYYY 25/09/2017 UTC

TAF VYYY 251700Z 2518/2618 22005KT 7000 BKN015 FEW020CB BKN110
TEMPO 2518/2522 16005KT SHRA
BECMG 2604/2606 -SHRA

South America

The availability of aerodrome forecasts from overseas locations is dependent on the regular international exchange of data. Some locations may at times be absent. If this problem persists, please advise webav@bom.gov.au

 back to top

SAEZ 25/09/2017 UTC

TAF SAEZ 251700Z 2518/2618 18005KT 9999 SCT030 TX25/2519Z TN12/2610Z
BECMG 2603/2606 13005KT 2000 MIFG BR PROB40 2606/2612 11015KT 5000
DZBR BKN008 BKN030

SAVC 25/09/2017 UTC

TAF SAVC 251700Z 2518/2618 25015KT CAVOK TX17/2618Z TN05/2610Z BECMG
2519/2521 VRB07KT BECMG 2612/2614 32015KT

SCIE 25/09/2017 UTC

TAF SCIE 251610Z 2518/2618 21012KT CAVOK TX16/2518Z TN08/2610Z BECMG
2600/2602 19008KT TEMPO 2606/2614 15004KT BECMG 2616/2618
21008KT

SACO 25/09/2017 UTC

TAF SACO 251700Z 2518/2618 09010KT 9999 SCT030 TX28/2518Z
TN17/2610Z
BECMG 2600/2602 02005KT 9999 BKN010
TEMPO 2608/2612 05005KT 1000 FGBC BKN008

SCIP 25/09/2017 UTC

TAF SCIP 251657Z 2518/2618 33017KT 9999 FEW020 BKN030 TX23/2520Z TN18
/2612Z
TEMPO 2518/2521 31022KT 6000 -SHRA SCT010 BKN020
BECMG 2600/2602 32012KT SCT020 BKN040
TEMPO 2608/2613 30017KT 7000 -SHRA SCT015 BKN025
BECMG 2614/2616 32017KT

SAZM 25/09/2017 UTC

TAF SAZM 251700Z 2518/2618 16010KT CAVOK TX17/2518Z TN09/2610Z
BECMG 2605/2606 16015KT 9999 BKN015 BKN060
BECMG 2610/2612 8000 RADZ BKN010 BKN040

SAME 25/09/2017 UTC

TAF SAME 251700Z 2518/2618 14010KT 9999 FEW040 SCT100 TX26/2520Z
TN11/2610Z

SUMU 25/09/2017 UTC

TAF SUMU 251700Z 2518/2618 13008KT 9999 FEW030 BKN070 TX17/2618Z
TN13/2610Z PROB30 TEMPO 2610/2612 3000 BR BKN008

SAZN 25/09/2017 UTC

TAF SAZN 251700Z 2518/2618 09010KT CAVOK TX18/2519Z TN07/2610Z
BECMG 2606/2608 09015KT BECMG 2611/1613 SCT030 BKN050

SCTE 25/09/2017 UTC

TAF SCTE 251629Z 2518/2618 16010KT 9999 SCT040 TX12/2519Z
TN01/2611Z
BECMG 2519/2521 CAVOK
BECMG 2603/2605 BKN010 PROB30
TEMPO 2609/2612 VRB02KT 0800 BCFG BKN005
BECMG 2613/2615 CAVOK

SCCI 25/09/2017 UTC

TAF SCCI 251642Z 2518/2618 25022G35KT 9999 FEW025 SCT035
TN02/2609Z
TX07/2519Z
BECMG 2520/2522 FEW020 BKN030
BECMG 2602/2604 28017KT
TEMPO 2612/2618 29025G40KT SCT040

SAWG 25/09/2017 UTC

TAF SAWG 251700Z 2518/2618 26020G30KT 9999 BKN023 SCT080
TX12/2618Z
TN01/2610Z
TEMPO 2518/2522 27025G37KT
BECMG 2603/2605 27025KT

SAAR 25/09/2017 UTC

TAF SAAR 251700Z 2518/2618 09005KT CAVOK TX26/2519Z TN16/2610Z
BECMG 2608/2610 2000 BR NSC
BECMG 2615/2617 09010KT 9999 BKN015

SAZS 25/09/2017 UTC

TAF SAZS 251700Z 2518/2618 29010KT 9999 SCT030 TX15/2619Z TN01/2610Z
BECMG 2605/2607 11010KT BECMG 2612/2614 02010KT

SCEL 25/09/2017 UTC

TAF SCEL 251609Z 2518/2618 19010KT CAVOK TX22/2518Z TN06/2610Z BECMG
2521/2523 SCT160 BECMG 2602/2604 16004KT CAVOK TEMPO
2608/2613 VRB02KT 7000 SCT160 BECMG 2616/2618 19010KT

SAWH 25/09/2017 UTC

TAF SAWH 251700Z 2518/2618 26020G30KT 9999 BKN020 BKN030
TX09/2618Z
TN01/2610Z
BECMG 2520/2522 27025KT BKN035 SCT080
BECMG 2602/2604 30010KT

Guam, Japan, Korea

The availability of aerodrome forecasts from overseas locations is dependent on the regular international exchange of data. Some locations may at times be absent. If this problem persists, please advise webav@bom.gov.au

 back to top

PGUA 25/09/2017 UTC

TAF AMD PGUA 252005Z 2520/2624 07009KT 9999 VCSH SCT015 QNH2978INS
TEMPO 2520/2522 09010G15KT 3200 -TSRA BKN015CB
TEMPO 2612/2615 8000 -SHRA BKN015 TX30/2601Z TN26/2617Z

PGUM 25/09/2017 UTC

TAF PGUM 251728Z 2518/2624 08006KT P6SM VCSH SCT020 SCT080 BKN110
TEMPO 2519/2523 4SM SHRA SCT015 BKN030

PGSN 25/09/2017 UTC

TAF PGSN 251728Z 2518/2618 08011KT P6SM VCSH SCT020 SCT080 BKN140
TEMPO 2518/2522 5SM SHRA SCT018 BKN030

PTRO 25/09/2017 UTC

TAF PTRO 251728Z 2518/2618 18005KT P6SM VCSH SCT016 SCT070 BKN130
TEMPO 2519/2522 VRB06KT 4SM SHRA BKN016 OVC040

RJOO

25/09/2017 UTC

TAF RJOO 251709Z 2518/2700 32006KT 9999 FEW030 BECMG 2521/2523
07004KT BECMG 2609/2612 32005KT BECMG 2621/2700 07006KT

RJOB 25/09/2017 UTC

TAF RJOB 251707Z 2518/2700 12005KT 9999 FEW025 SCT045 TEMPO
2520/2523 4000 BR BCFG TEMPO 2618/2700 4000 BR BCFG

RJGG 25/09/2017 UTC

TAF RJGG 251705Z 2518/2700 36006KT 9999 FEW015 BECMG 2603/2605
18008KT

RJCC 25/09/2017 UTC

TAF RJCC 251705Z 2518/2700 17006KT 9999 FEW020 BECMG 2601/2603
36006KT BECMG 2606/2609 15007KT TEMPO 2618/2621 3000 BR

RJSS 25/09/2017 UTC

TAF RJSS 251707Z 2518/2700 34004KT 9999 FEW030 BECMG 2600/2602
13008KT TEMPO 2612/2618 FEW005 BKN008 BECMG 2615/2618
34004KT

RJFK 25/09/2017 UTC

TAF RJFK 251707Z 2518/2700 02004KT 9999 FEW010 SCT050 BECMG
2520/2522 10010KT

RJAA 25/09/2017 UTC

TAF AMD RJAA 252006Z 2520/2700 03004KT 9999 FEW015 SCT030 TEMPO
2520/2522 4000 BR BECMG 2522/2600 14006KT

RJBB 25/09/2017 UTC

TAF RJBB 251707Z 2518/2700 03006KT 9999 FEW025 BECMG 2603/2605
26006KT BECMG 2615/2618 08006KT

RJTT 25/09/2017 UTC

TAF RJTT 251705Z 2518/2700 05005KT 9999 FEW015 BKN030 BECMG
2522/2600 12006KT BECMG 2601/2603 18014KT

RJFF 25/09/2017 UTC

TAF RJFF 251705Z 2518/2700 13006KT 9999 FEW040 BECMG 2601/2603
34005KT BECMG 2609/2612 14010KT

RJFT 25/09/2017 UTC

TAF RJFT 251710Z 2518/2700 08007KT 9999 FEW030

RJFU 25/09/2017 UTC

TAF RJFU 251706Z 2518/2700 13003KT 9999 FEW030 BECMG 2601/2603
29005KT BECMG 2609/2612 13010KT

ROAH 25/09/2017 UTC

TAF ROAH 251705Z 2518/2700 26008KT 9999 FEW010

RKSS 25/09/2017 UTC

TAF RKSS 251700Z 2518/2624 12005KT 7000 NSC
TN17/2521Z TX28/2606Z TN18/2621Z
BECMG 2602/2603 30006KT
BECMG 2617/2618 06006KT FEW010 BKN025 OVC120
TEMPO 2620/2622 4200 BR

RKSI 25/09/2017 UTC

TAF RKSI 251700Z 2518/2624 05008KT 7000 NSC
TN19/2521Z TX28/2606Z TN20/2621Z
BECMG 2600/2601 13008KT
BECMG 2608/2609 31007KT
BECMG 2617/2618 05008KT 4200 -RA FEW010 BKN025 OVC080
BECMG 2622/2623 11008KT 2800

RKSM 25/09/2017 UTC

TAF RKSM 251100Z 2512/2618 12005KT 9999 SCT200 TN18/2521Z
TX29/2606Z

RKPK 25/09/2017 UTC

TAF RKPK 251700Z 2518/2624 03006KT CAVOK TN18/2521Z TX29/2606Z
BECMG 2602/2603 12006KT
BECMG 2609/2610 03006KT
BECMG 2618/2619 15006KT BKN200
BECMG 2623/2624 9999 BKN030 OVC100

RKPC 25/09/2017 UTC

TAF RKPC 251700Z 2518/2624 10013KT 9999 SCT030 OVC150
TN22/2521Z TX26/2605Z TN23/2621Z
BECMG 2600/2601 09015G28KT
TEMPO 2606/2609 6000 -RA FEW010 BKN025 OVC100
BECMG 2611/2612 16012KT 6000 -RA FEW010 BKN025 OVC100
BECMG 2622/2623 26013KT

Indonesia, Pakistan, Singapore, India, Sri Lanka, United Arab Emirates

The availability of aerodrome forecasts from overseas locations is dependent on the regular international exchange of data. Some locations may at times be absent. If this problem persists, please advise webav@bom.gov.au

 back to top

WIII 25/09/2017 UTC

TAF WIII 251700Z 2518/2700 VRB03KT 5000 HZ SCT020 TEMPO
2521/2600 3000 BR BECMG 2602/2604 03010KT 9999 NSW

WSSS 25/09/2017 UTC

TAF WSSS 251700Z 2518/2700 17007KT 9999 FEW018CB
SCT020 TEMPO 2605/2609 3000 TSRA FEW012CB BKN015

VCBI 25/09/2017 UTC

TAF VCBI 251540Z 2518/2624 17008KT 9999
SCT016 TX30/2608Z TN24/2600Z
PROB40 TEMPO 2523/2604 6000 -SHRA
FEW012 BKN016 FEW020CB
BECMG 2602/2604 24012KT

VECC 25/09/2017 UTC

TAF VECC 251700Z 2518/2624 22007KT 3200 HZ SCT100
BECMG 2522/2524 00000KT 2500 BR HZ
BECMG 2603/2605 18006KT 3500 HZ
TEMPO 2607/2611 1500 TSRA SCT015 FEW025CB BKN090
BECMG 2620/2622 00000KT 2500 BR HZ

VOMM 25/09/2017 UTC

TAF VOMM 251700Z 2518/2624 32005KT 4000 BR FEW020 SCT100
TEMPO 2518/2524 SCT018 FEW025CB BKN100
BECMG 2603/2605 25010KT 6000
TEMPO 2610/2615 SCT018 FEW025CB BKN100
BECMG 2618/2619 32005KT 4000 BR

VOTV 25/09/2017 UTC

TAF VOTV 251700Z 2518/2624 33005KT 3000 HZ SCT015 BKN080 TEMPO
2522/2603 2000 RA BR BECMG 2604/2605 28010KT 6000 SCT015 FEW025CB
TEMPO 2609/2613 2000 TSRA RA SCT012 FEW025CB BKN080 BECMG 2613/2615
33005KT 3000 HZ TEMPO 2622/2624 2000 RA BR SCT015 BKN080

VABB 25/09/2017 UTC

TAF VABB 251700Z 2518/2624 34008KT 3500 HZ FEW020 SCT100 TEMPO
2518/2521
2000 -TSRA -SHRA SCT012 FEW030CB BKN080 BECMG 2521/2523 00000KT 3000
HZ
BECMG 2600/2602 07004KT BECMG 2603/2605 27008KT 4000 HZ -RA BECMG
2610/2612 2500 HZ -RA SCT015 FEW025TCU BKN090 TEMPO 2610/2618 2000
-TSRA -SHRA SCT012 SCT018 FEW030CB BKN080

VAAH 25/09/2017 UTC

TAF VAAH 251700Z 2518/2624 23005KT 4000 HZ FEW020 SCT080
BECMG 2601/2603 21005KT 2000 HZ BR
BECMG 2604/2606 25008KT 5000 HZ FU SCT020 SCT080
BECMG 2612/2614 29006KT 4000 FU HZ FEW020

VILK 25/09/2017 UTC

TAF VILK 251700Z 2518/2624 VRB02KT 3000 HZ BR FEW025 BECMG 2600/2603
00000KT 1500 BR NSC BECMG 2607/2609 32004KT 4000 HZ SCT020 BKN100
BECMGH 2613/2615 00000KT 3000 HZ FEW025 SCT100

VANP 24/09/2017 UTC

TAF VANP 242300Z 2500/2606 27005KT 3000 HZ FEW020 SCT025 BKN100
BECMG 2506/2508 32010KT 5000 HZ
BECMG 2512/2514 36008KT 4000 HZ
BECMG 2600/2602 32008KT 4000 HZ
TEMPO 2510/2514 FEW030CB

VRMM 25/09/2017 UTC

TAF VRMM 251700Z 2518/2624 27010KT 9999 FEW018TCU TEMPO 2518/2524
FEW018CB

VOHS 25/09/2017 UTC

TAF VOHS 251700Z 2518/2624 22005KT 4000 .DZ HZ SCT010 SCT015 BKN100
TEMPO 2522/2603 VRB03KT 1500 TSRA BKN010 FEW030CB OVC080 BECMG
2603/2605 31008KT 5000 .DZ HZ SCT015 SCT025 BKN100 TEMPO
2608/2615 24015KT 1500 TSRA SCT008 FEW030CB BKN080 BECMG
2615/2617 25005KT 5000 HZ SCT010 SCT100

OPKC 25/09/2017 UTC

TAF OPKC 251600Z 2518/2624 25008KT 5000 HZ SCT020 FM 250600
23008G18KT 6000 SCT020 FM 251800 25007KT 6000 SCT020

OBBI 25/09/2017 UTC

TAF OBBI 251700Z 2518/2700 VRB05KT CAVOK

OMAA 25/09/2017 UTC

TAF OMAA 251700Z 2518/2700 03006KT 8000 NSC
BECMG 2522/2600 12005KT
PROB40 2522/2604 4000 HZ
PROB30 TEMPO 2600/2603 VRB02KT 1000 BCFG
BECMG 2607/2609 33013KT
BECMG 2620/2622 08004KT 4000 HZ

OMDB 25/09/2017 UTC

TAF OMDB 251700Z 2518/2700 35010KT 8000 NSC
BECMG 2518/2520 09005KT
PROB30 2600/2604 3000 BR
BECMG 2608/2610 34014KT
BECMG 2616/2618 07005KT

OOMS 25/09/2017 UTC

TAF OOMS 251700Z 2518/2624 VRB03KT 8000 NSC PROB30 TEMPO
2521/2522
5000 BR BKN010 TEMPO 2606/2614 36010KT

OMSJ 25/09/2017 UTC

TAF OMSJ 251700Z 2518/2700 35010KT 8000 NSC
BECMG 2518/2520 10005KT
PROB30 2523/2605 3000 BR
BECMG 2608/2610 33014KT
BECMG 2616/2618 08005KT

Malawi, Mauritius, South Africa, Zambia, Zimbabwe

The availability of aerodrome forecasts from overseas locations is dependent on the regular international exchange of data. Some locations may at times be absent. If this problem persists, please advise webav@bom.gov.au

 back to top

FIMP 25/09/2017 UTC

TAF FIMP 251700Z 2518/2700 07005KT 9999 SCT016 BECMG 2518/2520
33003KT TEMPO 2522/2603 7000 -SHRA FEW010 SCT010 BKN050 BECMG
2604/2606 07008KT

FMEE 25/09/2017 UTC

TAF FMEE 251700Z 2518/2624 16006KT 9999 FEW023 PROB30 TEMPO 2518/2602
4000 SHRA FEW023TCU BKN030 BECMG 2603/2605 08010KT TEMPO 2610/2620
4000 SHRA SCT026TCU BKN040 BECMG 2616/2618 14008KT

FLKK 24/09/2017 UTC

TAF FLKK 242200Z 2500/2606 09009KT 9000 NSC

FWKI 25/09/2017 UTC

TAF FWKI 251500Z 2518/2624 04006KT CAVOK BECMG 2604/2606 03006KT 9999
SCT020 FM260900 06008KT CAVOK

FAOR 25/09/2017 UTC

TAF FAOR 251800Z 2518/2624 21015KT 9999 SCT045
TEMPO 2518/2524 21018G28KT 5000 TSRA FEW040CB
BECMG 2523/2601 34017KT
PROB40 TEMPO 2600/2603 28021G31KT 5000 TSRA FEW040CB
BECMG 2604/2606 26010KT
FM260900 28015KT CAVOK
BECMG 2616/2618 19022KT
TX23/2613Z TN12/2604Z

FVHA 25/09/2017 UTC

TAF FVHA 251600Z 2518/2624 02006KT CAVOK

FAWK 25/09/2017 UTC

TAF FAWK 251800Z 2519/2606 NIL

FABL 25/09/2017 UTC

TAF FABL 251600Z 2518/2618 29015KT 9999 SCT040 BKN070
BECMG 2518/2520 25008KT CAVOK
TX18/2613Z TN05/2604Z

FALE 25/09/2017 UTC

TAF FALE 251400Z 2518/2618 18015G25KT 9999 BKN020
PROB30 TEMPO 2514/2608 5000 TSRA BKN015
FEW030CB BECMG 2514/2516 22015KT FM260800
19018G28KT 9999 BKN025 TEMPO 2612/2618
5000 SHRA BKN020 TX24/2512Z TN17/2604Z

YPCC 25/09/2017 UTC

TAF YPCC 251659Z 2518/2618
14018KT 9999 -SHRA SCT025
RMK
T 24 24 24 26 Q 1013 1012 1014 1015

United States (includes Hawaii) and Mexican emergency/alternates

The availability of aerodrome forecasts from overseas locations is dependent on the regular international exchange of data. Some locations may at times be absent. If this problem persists, please advise webav@bom.gov.au

 back to top

PHNL 25/09/2017 UTC

TAF PHNL 251740Z 2518/2624 33004KT P6SM FEW050
FM252000 04010G16KT P6SM FEW025 SCT050
FM260500 03006KT P6SM FEW025 SCT045
FM260900 33004KT P6SM FEW040
FM262000 04010G16KT P6SM FEW025 SCT050

PHLI 25/09/2017 UTC

TAF PHLI 251740Z 2518/2618 28006KT P6SM VCSH SCT020 BKN050
FM252000 04010KT P6SM SCT025 SCT040
FM261000 30006KT P6SM SCT020 SCT035

PHOG 25/09/2017 UTC

TAF PHOG 251740Z 2518/2618 03005KT P6SM FEW025
FM252000 03014KT P6SM FEW050
FM260500 03007KT P6SM FEW025 SCT050
AMD LTD TO VIS AND WIND 2609/2616

PHTO 25/09/2017 UTC

TAF PHTO 251740Z 2518/2618 23005KT P6SM FEW025 SCT060
FM252100 03010KT P6SM SCT030 BKN060
FM260500 VRB05KT P6SM SCT025 BKN050

PKMJ 25/09/2017 UTC

TAF PKMJ 251728Z 2518/2618 14008KT P6SM VCSH SCT015 BKN050 OVC120
TEMPO 2518/2522 VRB06KT 4SM SHRA SCT015 BKN030

KLAX 25/09/2017 UTC

TAF KLAX 251728Z 2518/2624 VRB03KT P6SM SKC
FM251900 26008KT P6SM SKC
FM252100 26014KT P6SM SKC
FM260400 VRB03KT P6SM SKC
FM260900 07005KT P6SM SKC
FM261600 VRB03KT P6SM SKC

KONT 25/09/2017 UTC

TAF KONT 251735Z 2518/2624 VRB05KT P6SM FEW250
FM252100 29010KT P6SM SKC
FM260300 VRB04KT P6SM SKC
FM260500 VRB04KT P6SM SKC WS020/03018KT
FM261400 03015KT P6SM SKC
FM262000 28010KT P6SM SKC

KPMD 25/09/2017 UTC

TAF AMD KPMD 251830Z 2519/2618 06012KT P6SM SKC
FM260000 32008KT P6SM SKC
FM260300 30010KT P6SM SKC
FM260700 VRB03KT P6SM SKC

KSAN 25/09/2017 UTC

TAF KSAN 251735Z 2518/2624 VRB04KT P6SM SCT250
FM251900 30011KT P6SM SKC
FM260200 VRB04KT P6SM SKC
FM260900 VRB05KT 3SM BR VCFG SCT007
FM261600 VRB05KT P6SM FEW010
FM262000 25009KT P6SM SKC

KLAS 25/09/2017 UTC

TAF KLAS 251720Z 2518/2624 05010G16KT P6SM FEW250
FM252200 05010KT P6SM FEW250
FM260600 35010KT P6SM SCT250
FM261800 05010KT P6SM SCT250

KOAK 25/09/2017 UTC

TAF KOAK 251724Z 2518/2624 20005KT P6SM FEW200
FM251900 26005KT P6SM FEW200
FM252100 29012KT P6SM FEW200
FM260300 29008KT P6SM FEW200
FM260800 VRB04KT P6SM FEW250
FM261800 27007KT P6SM SKC

KSFO 25/09/2017 UTC

TAF KSFO 251724Z 2518/2624 VRB04KT P6SM FEW200
FM252200 29011KT P6SM FEW200
FM260000 28015KT P6SM FEW200
FM260400 28010KT P6SM FEW250
FM260900 26005KT P6SM FEW250
FM262100 30009KT P6SM SKC

KSMF 25/09/2017 UTC

TAF KSMF 251720Z 2518/2618 33010KT P6SM SCT250

KSCK 25/09/2017 UTC

TAF KSCK 251720Z 2518/2618 32006KT P6SM SCT250

KFAT 25/09/2017 UTC

TAF KFAT 251734Z 2518/2618 12004KT P6SM SKC
FM252200 26004KT P6SM SKC
FM260400 00000KT P6SM SKC

KJFK 25/09/2017 UTC

TAF KJFK 251901Z 2519/2624 16008KT P6SM FEW050
FM252300 14005KT 5SM BR SCT008
FM260100 11004KT 4SM BR BKN008
FM260400 07004KT 2SM BR BKN005
FM261400 06005KT 5SM BR SCT010
TEMPO 2614/2616 BKN010
FM261600 08006KT P6SM FEW020 SCT250
FM261800 13008KT P6SM FEW025 SCT250

KPHL 25/09/2017 UTC

TAF KPHL 251728Z 2518/2624 10006KT P6SM FEW250
FM260400 VRB03KT 5SM BR SCT005
FM260900 04003KT 3SM BR BKN005
FM261500 06006KT P6SM SCT200

KPIT 25/09/2017 UTC

TAF KPIT 251723Z 2518/2624 12003KT P6SM BKN250

KDEN 25/09/2017 UTC

TAF KDEN 251739Z 2518/2624 04008KT P6SM SCT007 BKN012 BKN040
FM252100 07009KT P6SM VCSH BKN022 OVC060
TEMPO 2522/2602 4SM -SHRA OVC012
FM260400 16005KT P6SM SCT015 SCT025 BKN100
FM260700 13006KT P6SM VCFG SCT070
FM261000 13006KT 1/2SM FG OVC001
FM261600 14005KT P6SM FEW010
FM261900 10009KT P6SM SCT025 BKN050

KMCI 25/09/2017 UTC

TAF KMCI 251720Z 2518/2618 19010KT P6SM SCT150 BKN200
FM260300 VRB06KT P6SM VCTS OVC040CB
FM261500 35005KT P6SM OVC020

KDFW 25/09/2017 UTC

TAF KDFW 251730Z 2518/2624 15012KT P6SM SCT030 BKN200
FM261300 14010KT P6SM BKN025
FM261700 14010KT P6SM SCT030 BKN200

KAUS 25/09/2017 UTC

TAF KAUS 251743Z 2518/2624 14010KT P6SM VCSH BKN035 BKN250
FM260100 13007KT P6SM SCT050 BKN250
FM260800 15004KT P6SM OVC018
FM261000 15004KT 3SM BR OVC006
FM261500 11007KT P6SM OVC015

KELP 25/09/2017 UTC

TAF KELP 251720Z 2518/2618 26011KT P6SM SKC
FM260600 05005KT P6SM SCT080
FM261500 08008KT P6SM SCT050

KIAH 25/09/2017 UTC

TAF KIAH 251729Z 2518/2624 11010KT P6SM VCSH FEW025 SCT035
FM260100 13007KT P6SM FEW030
FM260600 VRB03KT P6SM MIFG SKC
FM261300 08005KT P6SM FEW025 SCT200
FM262100 11008KT P6SM VCSH SCT030 SCT250

KSAT 25/09/2017 UTC

TAF KSAT 251743Z 2518/2624 11010KT P6SM VCSH BKN040
FM260500 13008KT P6SM OVC025
FM261000 12008KT P6SM OVC007
FM261600 12009KT P6SM OVC015

KTUS 25/09/2017 UTC

TAF KTUS 251720Z 2518/2618 17005KT P6SM SKC
FM252000 31008KT P6SM SKC
FM260400 23005KT P6SM SKC
FM260800 15006KT P6SM SCT250

MMCU 25/09/2017 UTC

TAF MMCU 251633Z 2518/2618 27006KT P6SM SCT030
FM260600 34005KT P6SM SCT030 SCT090

MMHO 25/09/2017 UTC

TAF MMHO 251624Z 2518/2618 00000KT P6SM SKC
BECMG 2520/2521 24010KT
FM260200 00000KT P6SM SKC
BECMG 2617/2618 18005KT

MMLT 25/09/2017 UTC

TAF MMLT 251708Z 2518/2618 05015KT P6SM SCT025
TEMPO 2522/2602 BKN020
BECMG 2603/2604 00000KT
FM261500 06001KT P6SM SCT040

MMSD 25/09/2017 UTC

TAF MMSD 251708Z 2518/2618 16015KT P6SM BKN030 BKN120
FM260300 00000KT P6SM SCT020 SCT070
FM261500 12010KT P6SM SCT035

Papua New Guinea, Southwest Pacific

The availability of aerodrome forecasts from overseas locations is dependent on the regular international exchange of data. Some locations may at times be absent. If this problem persists, please advise webav@bom.gov.au

 back to top

NWWW 25/09/2017 UTC

TAF NWWW 251700Z 2518/2618 VRB03KT 9999 FEW055 BECMG 2523/2601 18012KT BECMG 2605/2608 VRB05KT

NFFN 25/09/2017 UTC

TAF NFFN 251707Z 2518/2618
11006KT 9999 FEW030 SCT050
BECMG 2521/2523 28012KT
BECMG 2604/2606 10006KT

NFNA 25/09/2017 UTC

TAF NFNA 251707Z 2518/2618
14008KT 9999 BKN022 BKN100

NFTF 25/09/2017 UTC

TAF NFTF 251707Z 2518/2618
13007KT 9999 FEW008 SCT018 BKN100
PROB30 TEMPO 2518/2524 6000 SHRA BKN015

NSTU 25/09/2017 UTC

TAF NSTU 251740Z 2518/2618 13013KT P6SM VCSH SCT016 SCT040 BKN100

NVVV 25/09/2017 UTC

TAF NVVV 251600Z 2518/2618 12008KT 9999 FEW020

NCRG 25/09/2017 UTC

TAF NCRG 251707Z 2518/2618
16008KT 9999 FEW024 SCT100

NTAA 25/09/2017 UTC

TAF NTAA 251700Z 2518/2624 VRB05KT 9999 FEW020 BKN080 TEMPO 2518/2602
22014KT PROB30 TEMPO 2520/2602 3000 SHRA BKN018

NTTG

TAF not available.

NTTO

TAF not available.

NSFA 25/09/2017 UTC

TAF NSFA 251707Z 2518/2618
17007KT 9999 SCT022 SCT100
PROB30 TEMPO 2600/2612 5000 TSRA FEW018CB

ANYN 25/09/2017 UTC

TAF ANYN 251007Z 2512/2612 08010KT 9999 -SHRA SCT018 SCT140
T 26 26 28 31
Q 1010 1008 1009 1011

AGGH 25/09/2017 UTC

TAF AGGH 251723Z 2518/2618 11008KT 9999 FEW017 SCT100

FM252200 09015KT 9999 -SHDZ SCT019

T 23 27 31 32 Q 1010 1012 1012 1010

AGGM 25/09/2017 UTC

TAF AGGM 251723Z 2518/2618 VRB03KT 9999 FEW017 BKN100

FM252200 09015KT 9999 -SHDZ BKN018

Q 1009 1011 1011 1009

AGGN 25/09/2017 UTC

TAF AGGN 251723Z 2518/2618 VRB03KT 9999 FEW017 BKN100

FM252200 09015KT 9999 -SHDZ BKN018

Q 1009 1011 1011 1009

AYPY 25/09/2017 UTC

TAF AYPY 251005Z 2512/2612 17006KT 9999 SCT035
FM251800 00000KT 9999 SCT030
FM252200 17006KT 9999 SCT018 SCT140 PROB20 2519/2621 0700 FG

AYNZ 25/09/2017 UTC

TAF AYNZ 250415Z 2508/2520 09006KT 9999 -SHRA SCT016 SCT040 BKN120
INTER 2508/2520 4000 +SHRA BKN008
Q 1009 1012 1011 1008

AYMD 25/09/2017 UTC

TAF AYMD 250416Z 2508/2520 07007KT 9999 -SHRA SCT018 SCT140
Q 1009 1011 1010 1008

AYMH

TAF not available.

AYTA

TAF not available.

PKMJ 25/09/2017 UTC

TAF PKMJ 251728Z 2518/2618 14008KT P6SM VCSH SCT015 BKN050 OVC120
TEMPO 2518/2522 VRB06KT 4SM SHRA SCT015 BKN030

NGTA 25/09/2017 UTC

TAF NGTA 251707Z 2518/2618
11014KT 9999 FEW020 SCT100

PTRO 25/09/2017 UTC

TAF PTRO 251728Z 2518/2618 18005KT P6SM VCSH SCT016 SCT070 BKN130
TEMPO 2519/2522 VRB06KT 4SM SHRA BKN016 OVC040

YLHI 25/09/2017 UTC

TAF YLHI 251714Z 2518/2618
29010KT 4000 BR BKN008 BKN020
FM260000 20008KT 9999 SCT025
PROB30 INTER 2518/2524 3000 TSRA BKN005 FEW070CB
RMK FM251800 MOD TURB BLW 5000FT TILL252400
T 20 19 20 21 Q 1010 1013 1014 1013

YSNF 25/09/2017 UTC

TAF AMD YSNF 251710Z 2518/2618
36008KT 9999 BKN010
FM252100 33014KT 9999 BKN010 BKN120
FM261200 32013KT 9999 -SHRA SCT005 BKN010 BKN120
PROB30 INTER 2612/2618 4000 TSRA BKN005 FEW110CB
RMK FM260000 MOD TURB BLW 5000FT
T 17 19 20 20 Q 1017 1019 1019 1017

Indonesia, Timor Leste, Papua New Guinea

The availability of aerodrome forecasts from overseas locations is dependent on the regular international exchange of data. Some locations may at times be absent. If this problem persists, please advise webav@bom.gov.au

 back to top

WAAA 25/09/2017 UTC

TAF WAAA 251700Z 2518/2700 10004KT 8000 FEW019
SCT120 BECMG 2601/2603 33010KT 9999 TEMPO 2607/2610
5000 -TSRA FEW017CB BECMG 2611/2613 13004KT 8000

WAMM 25/09/2017 UTC

TAF WAMM 251700Z 2518/2624 07002KT 9999 SCT022
PROB40 TEMPO 2518/2522 7000 -RA SCT018
BECMG 2523/2601 29006KT
PROB40 TEMPO 2605/2609 5000 -RA FEW017CB SCT018
BECMG 2609/2611 09002KT FEW022

WAMP

TAF not available.

WAJJ 25/09/2017 UTC

TAF WAJJ 251700Z 2518/2618 23005KT 9000 FEW014
BECMG 2600/2602 15007KT
BECMG 2605/2607 RA 6000 FEW013CB FEW014

WAPP 25/09/2017 UTC

TAF WAPP 251700Z 2518/2618 34006KT 9999 SCT019

WABB 25/09/2017 UTC

TAF WABB 251700Z 2518/2700 32003KT 9000 SCT018 TEMPO
2518/2522 7000 RA FEW017CB BECMG 2522/2600 24008KT

WPDL 25/09/2017 UTC

TAF WPDL 251706Z 2518/2606
15006KT CAVOK
FM260000 35008KT CAVOK
RMK
T 26 25 30 31 Q 1011 1011 1012 1012

WATT 25/09/2017 UTC

TAF WATT 251700Z 2518/2618 13003KT 8000 FEW018
BECMG 2602/2604 30010KT

WIII 25/09/2017 UTC

TAF WIII 251700Z 2518/2700 VRB03KT 5000 HZ SCT020 TEMPO
2521/2600 3000 BR BECMG 2602/2604 03010KT 9999 NSW

WIHH 25/09/2017 UTC

TAF WIHH 251700Z 2518/2618 22004KT 6000 FEW024
BECMG 2603/2605 06009KT 7000 SCT022 TEMPO
2611/2613 24010KT 5000 -RA FEW018CB SCT017

WIMM 25/09/2017 UTC

TAF WIMM 251700Z 2518/2618 VRB03KT 4000 BR FEW017CB SCT018
BECMG 2604/2606 03010KT 9000 SCT018
BECMG 2610/2612 VRB03KT 5000 HZ FEW017CB SCT018

WARR 25/09/2017 UTC

TAF WARR 251700Z 2518/2618 26004KT 6000 FEW020
TEMPO 2520/2600 4000 HZ BECMG 2600/2602 08010KT
9999 PROB40 TEMPO 2608/2611 6000 -RA SCT020CB
BECMG 2615/2617 27005KT 6000

WADD 25/09/2017 UTC

TAF WADD 251700Z 2518/2618 10010KT 9999 SCT017
TEMPO 2606/2610 12016KT BKN016

AYPY 25/09/2017 UTC

TAF AYPY 251005Z 2512/2612 17006KT 9999 SCT035
FM251800 00000KT 9999 SCT030
FM252200 17006KT 9999 SCT018 SCT140 PROB20 2519/2621 0700 FG

AYNZ 25/09/2017 UTC

TAF AYNZ 250415Z 2508/2520 09006KT 9999 -SHRA SCT016 SCT040 BKN120
INTER 2508/2520 4000 +SHRA BKN008
Q 1009 1012 1011 1008

AYMH

TAF not available.

AYMD 25/09/2017 UTC

TAF AYMD 250416Z 2508/2520 07007KT 9999 -SHRA SCT018 SCT140
Q 1009 1011 1010 1008

AYHK

TAF not available.

AYTK

TAF not available.

AYVN

TAF not available.

AYWK 25/09/2017 UTC

TAF AYWK 250417Z 2508/2520 06006KT 9999 -SHRA SCT016 SCT040 BKN120
INTER 2508/2520 4000 +SHRA BKN008
Q 1009 1011 1010 1008

AYGA

TAF not available.

AYDU

TAF not available.

AYMS

TAF not available.

AYRB

TAF not available.

AYTB

TAF not available.

AYKI

TAF not available.

AYKT

TAF not available.

AYBK

TAF not available.

AYKM

TAF not available.

AYKY

TAF not available.

AYMO 25/09/2017 UTC

TAF AYMO 250418Z 2508/2520 16008KT 9999 -SHRA SCT016 SCT040 BKN120
INTER 2508/2520 4000 +SHRA BKN008
Q 1009 1011 1010 1008

AYKV

TAF not available.

Accessing this Service

By entering this site, you acknowledge that this information is produced solely for use by the aviation industry, and you are aware that any information for the purposes of flight planning should be obtained from Airservices Australia.